Time;durP1;ratioP1;P1;durP2;ratioP2;P2;SDS_P1;SDS_P2;PMS_P1;PMS_P2;Temp;Humidity;BMP_temperature;BMP_pressure;BME280_temperature;BME280_humidity;BME280_pressure;Samples;Min_cycle;Max_cycle;Signal;HPM_P1;HPM_P2
2022/03/09 00:00:44;;;;;;;16.65;9.25;;;8.60;50.30;;;;;;4992359;28;20080;-73
2022/03/09 00:03:09;;;;;;;14.20;8.40;;;8.50;50.50;;;;;;4992137;28;20157;-72
2022/03/09 00:05:36;;;;;;;13.68;8.63;;;8.40;50.40;;;;;;4992476;28;20078;-72
2022/03/09 00:08:02;;;;;;;14.15;8.60;;;8.50;50.40;;;;;;4992694;28;20054;-72
2022/03/09 00:10:28;;;;;;;13.45;8.63;;;8.50;50.40;;;;;;4992244;28;20026;-73
2022/03/09 00:12:55;;;;;;;16.75;8.93;;;8.50;50.40;;;;;;4992618;28;20030;-73
2022/03/09 00:15:20;;;;;;;15.82;9.45;;;8.50;50.80;;;;;;4992215;28;20046;-72
2022/03/09 00:17:46;;;;;;;14.20;8.63;;;8.40;50.70;;;;;;4992324;28;20410;-72
2022/03/09 00:20:12;;;;;;;15.13;9.05;;;8.40;50.80;;;;;;4993342;28;20053;-72
2022/03/09 00:22:37;;;;;;;13.55;9.25;;;8.40;50.70;;;;;;4993341;28;20022;-73
2022/03/09 00:25:04;;;;;;;13.15;9.20;;;8.40;51.00;;;;;;4993255;28;20033;-73
2022/03/09 00:27:32;;;;;;;16.77;9.70;;;8.40;50.90;;;;;;4992801;28;20042;-73
2022/03/09 00:29:58;;;;;;;13.43;8.23;;;8.40;51.00;;;;;;4991603;28;20054;-73
2022/03/09 00:32:24;;;;;;;13.55;8.65;;;8.40;51.20;;;;;;4993308;28;20034;-75
2022/03/09 00:34:49;;;;;;;13.05;8.57;;;8.30;51.10;;;;;;4993389;28;20072;-73
2022/03/09 00:37:15;;;;;;;14.68;8.95;;;8.30;51.40;;;;;;4992966;28;20031;-74
2022/03/09 00:39:40;;;;;;;13.77;9.02;;;8.30;51.10;;;;;;4992651;28;20049;-73
2022/03/09 00:42:06;;;;;;;14.68;8.70;;;8.30;51.00;;;;;;4993394;28;20045;-74
2022/03/09 00:44:32;;;;;;;14.07;8.27;;;8.20;51.10;;;;;;4993152;28;20045;-74
2022/03/09 00:46:57;;;;;;;15.77;8.85;;;8.20;51.30;;;;;;4993491;28;20038;-74
2022/03/09 00:49:23;;;;;;;14.10;8.80;;;8.20;51.30;;;;;;4993392;28;20041;-73
2022/03/09 00:51:49;;;;;;;16.10;8.45;;;8.20;51.30;;;;;;4996319;28;20034;-73
2022/03/09 00:54:15;;;;;;;13.38;8.10;;;8.10;51.30;;;;;;4996104;28;20082;-75
2022/03/09 00:56:41;;;;;;;14.98;8.93;;;8.10;51.40;;;;;;4996822;28;20019;-74
2022/03/09 00:59:06;;;;;;;13.50;7.65;;;8.10;51.30;;;;;;4995942;28;20492;-73
2022/03/09 01:01:32;;;;;;;15.07;7.72;;;8.20;51.30;;;;;;4996638;28;20030;-74
2022/03/09 01:03:57;;;;;;;14.65;7.53;;;8.10;51.00;;;;;;4996712;28;20041;-74
2022/03/09 01:06:23;;;;;;;13.15;7.70;;;8.00;51.20;;;;;;4995843;28;20381;-73
2022/03/09 01:08:49;;;;;;;11.52;7.22;;;7.90;51.40;;;;;;4996778;28;20018;-74
2022/03/09 01:11:14;;;;;;;11.50;7.72;;;7.90;51.70;;;;;;4996193;28;20037;-73
2022/03/09 01:13:40;;;;;;;12.10;7.68;;;7.90;51.70;;;;;;4996277;28;20030;-73
2022/03/09 01:16:06;;;;;;;12.57;8.45;;;7.90;51.60;;;;;;4996548;28;20023;-73
2022/03/09 01:18:31;;;;;;;11.77;7.90;;;7.90;51.70;;;;;;4996696;28;20465;-73
2022/03/09 01:20:57;;;;;;;13.82;7.75;;;7.90;51.70;;;;;;4996604;28;20374;-73
2022/03/09 01:23:22;;;;;;;12.23;8.15;;;7.90;51.70;;;;;;4996067;28;20380;-74
2022/03/09 01:25:48;;;;;;;12.80;7.88;;;7.90;51.50;;;;;;4996239;28;20034;-74
2022/03/09 01:28:14;;;;;;;15.07;7.82;;;7.90;51.40;;;;;;4996234;28;20114;-73
2022/03/09 01:30:40;;;;;;;11.48;7.40;;;7.90;51.60;;;;;;4996279;28;20054;-73
2022/03/09 01:33:05;;;;;;;12.07;7.47;;;7.90;51.60;;;;;;4996458;28;20382;-74
2022/03/09 01:35:31;;;;;;;13.75;8.18;;;7.90;51.60;;;;;;4995908;28;20026;-74
2022/03/09 01:37:57;;;;;;;12.65;7.68;;;7.90;51.70;;;;;;4996297;28;20038;-75
2022/03/09 01:40:22;;;;;;;16.23;7.88;;;7.80;51.60;;;;;;4995908;28;20042;-75
2022/03/09 01:42:48;;;;;;;10.32;7.07;;;7.70;51.70;;;;;;4995911;28;20462;-74
2022/03/09 01:45:14;;;;;;;13.75;7.95;;;7.60;52.00;;;;;;4995845;28;20022;-74
2022/03/09 01:47:43;;;;;;;11.13;7.22;;;7.60;51.80;;;;;;4996147;28;20041;-74
2022/03/09 01:50:09;;;;;;;11.55;6.82;;;7.60;51.80;;;;;;4996066;28;20045;-74
2022/03/09 01:52:36;;;;;;;14.40;7.80;;;7.60;51.80;;;;;;4995776;28;20022;-74
2022/03/09 01:55:02;;;;;;;11.57;7.38;;;7.60;52.00;;;;;;4995753;28;20026;-74
2022/03/09 01:57:30;;;;;;;12.25;7.93;;;7.50;52.20;;;;;;4995485;28;20056;-75
2022/03/09 01:59:56;;;;;;;13.18;7.82;;;7.50;52.40;;;;;;4995932;28;20073;-75
2022/03/09 02:02:22;;;;;;;11.88;7.25;;;7.40;53.10;;;;;;4994958;28;20371;-75
2022/03/09 02:04:48;;;;;;;13.45;7.85;;;7.30;52.40;;;;;;4995615;28;20160;-74
2022/03/09 02:07:14;;;;;;;12.50;8.02;;;7.30;52.60;;;;;;4995702;28;20045;-75
2022/03/09 02:09:43;;;;;;;14.23;7.60;;;7.30;52.70;;;;;;4995608;28;20114;-75
2022/03/09 02:12:14;;;;;;;10.40;7.18;;;7.30;52.60;;;;;;4995335;28;20030;-75
2022/03/09 02:14:49;;;;;;;12.48;7.03;;;7.40;52.60;;;;;;4995494;28;20030;-75
2022/03/09 02:17:20;;;;;;;11.98;7.22;;;7.40;52.80;;;;;;4995559;28;20085;-75
2022/03/09 02:19:49;;;;;;;11.05;6.60;;;7.40;52.50;;;;;;4995469;28;20481;-75
2022/03/09 02:22:33;;;;;;;11.90;7.13;;;7.40;52.60;;;;;;4995474;28;20049;-75
2022/03/09 02:25:00;;;;;;;13.52;7.53;;;7.40;52.50;;;;;;4995276;28;20030;-74
2022/03/09 02:27:26;;;;;;;11.55;7.30;;;7.40;52.50;;;;;;4995377;28;20098;-74
2022/03/09 02:29:54;;;;;;;11.80;7.50;;;7.40;52.60;;;;;;4995328;28;20077;-74
2022/03/09 02:32:21;;;;;;;12.50;7.30;;;7.40;52.70;;;;;;4994917;28;20088;-74
2022/03/09 02:34:47;;;;;;;11.20;7.50;;;7.40;52.80;;;;;;4995301;28;20027;-74
2022/03/09 02:37:12;;;;;;;12.18;7.68;;;7.40;52.70;;;;;;4994805;28;20489;-74
2022/03/09 02:39:38;;;;;;;10.43;7.20;;;7.40;52.70;;;;;;4995033;28;20050;-74
2022/03/09 02:42:05;;;;;;;13.88;7.53;;;7.40;52.80;;;;;;4994758;28;20508;-74
2022/03/09 02:44:31;;;;;;;15.13;8.00;;;7.40;52.70;;;;;;4994999;28;20028;-74
2022/03/09 02:46:57;;;;;;;13.02;7.40;;;7.50;52.60;;;;;;4994711;28;20073;-74
2022/03/09 02:49:23;;;;;;;12.85;7.57;;;7.40;52.70;;;;;;4994837;28;20026;-74
2022/03/09 02:51:48;;;;;;;13.45;7.57;;;7.40;52.80;;;;;;4994630;28;20501;-74
2022/03/09 02:54:14;;;;;;;11.27;7.53;;;7.40;52.80;;;;;;4994863;28;20022;-74
2022/03/09 02:56:40;;;;;;;13.98;7.57;;;7.30;52.80;;;;;;4994389;28;20062;-74
2022/03/09 02:59:05;;;;;;;11.68;7.53;;;7.20;52.80;;;;;;4994817;28;20034;-74
2022/03/09 03:01:31;;;;;;;11.82;7.22;;;7.20;52.90;;;;;;4994872;28;20488;-74
2022/03/09 03:03:57;;;;;;;12.73;7.53;;;7.10;52.90;;;;;;4994435;28;20406;-74
2022/03/09 03:06:23;;;;;;;11.60;7.70;;;7.10;53.00;;;;;;4994260;28;20073;-74
2022/03/09 03:08:49;;;;;;;14.73;7.55;;;7.10;53.20;;;;;;4994148;28;20034;-73
2022/03/09 03:11:16;;;;;;;12.75;7.50;;;7.10;53.10;;;;;;4994601;28;20038;-74
2022/03/09 03:13:45;;;;;;;13.57;8.23;;;7.20;53.60;;;;;;4994414;28;20025;-74
2022/03/09 03:16:13;;;;;;;11.40;7.55;;;7.20;53.20;;;;;;4994331;28;20026;-74
2022/03/09 03:18:42;;;;;;;13.15;7.90;;;7.20;53.00;;;;;;4994184;28;20018;-74
2022/03/09 03:21:07;;;;;;;13.57;7.22;;;7.10;52.90;;;;;;4994405;28;20022;-74
2022/03/09 03:23:37;;;;;;;15.02;8.60;;;7.10;53.00;;;;;;4994179;28;20054;-73
2022/03/09 03:26:05;;;;;;;13.95;8.15;;;7.00;53.10;;;;;;4994264;28;20042;-73
2022/03/09 03:28:31;;;;;;;11.48;7.40;;;7.00;53.20;;;;;;4993900;28;20034;-74
2022/03/09 03:30:57;;;;;;;24.25;7.35;;;7.00;53.20;;;;;;4994116;28;20433;-74
2022/03/09 03:33:25;;;;;;;14.65;7.47;;;7.00;53.20;;;;;;4994226;28;20060;-74
2022/03/09 03:35:51;;;;;;;12.52;7.53;;;7.00;53.00;;;;;;4994326;28;20029;-74
2022/03/09 03:38:17;;;;;;;13.30;7.60;;;7.10;53.00;;;;;;4994243;28;20434;-74
2022/03/09 03:40:43;;;;;;;13.98;7.15;;;7.10;53.10;;;;;;4993616;28;20122;-74
2022/03/09 03:43:09;;;;;;;12.80;7.68;;;7.10;53.00;;;;;;4994043;28;20030;-74
2022/03/09 03:45:35;;;;;;;11.80;7.05;;;7.20;53.10;;;;;;4993761;28;20121;-74
2022/03/09 03:48:01;;;;;;;10.43;7.15;;;7.20;53.10;;;;;;4993860;28;20022;-73
2022/03/09 03:50:26;;;;;;;11.93;6.78;;;7.20;52.90;;;;;;4993698;28;20486;-73
2022/03/09 03:52:52;;;;;;;11.48;7.75;;;7.30;52.90;;;;;;4993976;28;20026;-73
2022/03/09 03:55:18;;;;;;;12.65;7.95;;;7.30;52.70;;;;;;4993996;28;20421;-74
2022/03/09 03:57:44;;;;;;;12.73;7.70;;;7.30;52.90;;;;;;4993791;28;20438;-73
2022/03/09 04:00:11;;;;;;;12.95;7.60;;;7.20;52.90;;;;;;4993513;28;20113;-73
2022/03/09 04:02:37;;;;;;;11.93;7.05;;;7.30;52.70;;;;;;4993726;28;20088;-73
2022/03/09 04:05:04;;;;;;;10.88;7.60;;;7.30;52.70;;;;;;4993984;28;20525;-73
2022/03/09 04:07:31;;;;;;;12.00;7.32;;;7.30;52.40;;;;;;4993818;28;20165;-73
2022/03/09 04:09:56;;;;;;;10.10;7.00;;;7.30;52.50;;;;;;4993445;28;20490;-73
2022/03/09 04:12:23;;;;;;;12.73;7.32;;;7.30;52.40;;;;;;4993755;28;20030;-74
2022/03/09 04:14:49;;;;;;;13.45;7.25;;;7.30;52.70;;;;;;4993619;28;20462;-74
2022/03/09 04:17:18;;;;;;;11.63;7.03;;;7.20;52.50;;;;;;4993622;28;20034;-74
2022/03/09 04:19:45;;;;;;;14.13;7.38;;;7.10;52.60;;;;;;4993604;28;20030;-74
2022/03/09 04:22:10;;;;;;;10.50;7.20;;;7.10;52.80;;;;;;4993823;28;20089;-75
2022/03/09 04:24:36;;;;;;;10.43;7.20;;;7.00;52.80;;;;;;4993624;28;20402;-75
2022/03/09 04:27:03;;;;;;;14.23;7.45;;;7.00;53.00;;;;;;4997712;28;20038;-75
2022/03/09 04:29:29;;;;;;;11.10;7.13;;;7.00;53.30;;;;;;4997300;28;20030;-75
2022/03/09 04:31:54;;;;;;;13.35;7.65;;;7.00;53.40;;;;;;4997403;28;20030;-75
2022/03/09 04:34:20;;;;;;;13.55;7.93;;;7.00;53.40;;;;;;4997561;28;20531;-75
2022/03/09 04:36:45;;;;;;;11.55;7.07;;;7.00;53.30;;;;;;4997306;28;20022;-75
2022/03/09 04:39:11;;;;;;;10.65;7.07;;;6.90;53.30;;;;;;4997224;28;20381;-75
2022/03/09 04:41:37;;;;;;;11.98;7.50;;;6.90;53.40;;;;;;4996983;28;20041;-75
2022/03/09 04:44:03;;;;;;;12.85;7.30;;;6.80;53.50;;;;;;4997384;28;20469;-75
2022/03/09 04:46:28;;;;;;;14.00;7.57;;;6.70;53.60;;;;;;4997211;28;20074;-75
2022/03/09 04:48:54;;;;;;;13.25;8.05;;;6.70;53.60;;;;;;4997087;28;20057;-75
2022/03/09 04:51:20;;;;;;;11.80;7.55;;;6.70;53.70;;;;;;4996971;28;20539;-75
2022/03/09 04:53:46;;;;;;;11.23;7.25;;;6.50;53.90;;;;;;4996898;28;20111;-75
2022/03/09 04:56:15;;;;;;;11.00;7.55;;;6.50;54.30;;;;;;4996910;28;20113;-75
2022/03/09 04:58:41;;;;;;;13.52;7.78;;;6.50;54.50;;;;;;4996696;28;20366;-75
2022/03/09 05:01:06;;;;;;;14.27;8.07;;;6.40;54.50;;;;;;4996815;28;20034;-75
2022/03/09 05:03:34;;;;;;;12.57;7.80;;;6.30;54.70;;;;;;4996500;28;20045;-75
2022/03/09 05:06:01;;;;;;;11.60;7.38;;;6.30;54.30;;;;;;4996868;28;20358;-74
2022/03/09 05:08:27;;;;;;;10.65;7.60;;;6.20;54.40;;;;;;4996677;28;20030;-75
2022/03/09 05:10:53;;;;;;;15.15;7.22;;;6.20;54.50;;;;;;4996934;28;20030;-74
2022/03/09 05:13:20;;;;;;;12.60;7.40;;;6.10;54.70;;;;;;4996237;28;20029;-74
2022/03/09 05:15:46;;;;;;;15.35;7.97;;;6.10;54.90;;;;;;4996442;28;20025;-73
2022/03/09 05:18:11;;;;;;;12.13;7.53;;;6.10;55.20;;;;;;4996632;28;20030;-73
2022/03/09 05:20:37;;;;;;;12.55;7.68;;;6.10;55.20;;;;;;4996412;28;20019;-73
2022/03/09 05:23:04;;;;;;;10.85;6.70;;;6.10;55.30;;;;;;4996394;28;20077;-73
2022/03/09 05:25:30;;;;;;;14.40;7.72;;;6.10;55.30;;;;;;4996168;28;20030;-73
2022/03/09 05:27:55;;;;;;;14.13;7.78;;;6.10;55.30;;;;;;4996466;28;20030;-75
2022/03/09 05:30:21;;;;;;;12.05;7.07;;;6.00;55.20;;;;;;4996513;28;20398;-74
2022/03/09 05:32:50;;;;;;;12.48;7.60;;;6.00;55.30;;;;;;4996249;28;20062;-74
2022/03/09 05:35:15;;;;;;;13.45;8.15;;;6.00;55.40;;;;;;4995159;28;20033;-74
2022/03/09 05:37:44;;;;;;;13.68;7.38;;;5.90;55.50;;;;;;4994773;28;20018;-74
2022/03/09 05:40:10;;;;;;;11.35;7.20;;;5.80;56.20;;;;;;4995649;28;20156;-74
2022/03/09 05:42:36;;;;;;;13.60;7.22;;;5.80;56.00;;;;;;4995944;28;20022;-74
2022/03/09 05:45:03;;;;;;;18.30;8.38;;;5.80;56.10;;;;;;4996201;28;20114;-74
2022/03/09 05:47:29;;;;;;;16.58;8.10;;;5.80;56.10;;;;;;4996036;28;20170;-73
2022/03/09 05:49:54;;;;;;;12.80;8.48;;;5.70;56.30;;;;;;4995970;28;20474;-73
2022/03/09 05:52:20;;;;;;;13.18;7.95;;;5.70;56.30;;;;;;4995822;28;20034;-74
2022/03/09 05:54:45;;;;;;;13.07;8.00;;;5.70;56.50;;;;;;4995681;28;20030;-74
2022/03/09 05:57:18;;;;;;;12.80;7.72;;;5.70;56.40;;;;;;4995660;28;20025;-74
2022/03/09 05:59:43;;;;;;;11.02;8.07;;;5.70;56.40;;;;;;4995785;28;20093;-75
2022/03/09 06:02:09;;;;;;;13.43;7.32;;;5.70;56.40;;;;;;4995728;28;20066;-74
2022/03/09 06:04:34;;;;;;;12.10;6.97;;;5.70;56.30;;;;;;4995580;28;20054;-74
2022/03/09 06:07:04;;;;;;;14.93;7.78;;;5.70;56.30;;;;;;4995758;28;20034;-74
2022/03/09 06:09:32;;;;;;;11.93;7.28;;;5.70;56.20;;;;;;4995265;28;20027;-73
2022/03/09 06:11:58;;;;;;;12.38;7.50;;;5.80;56.30;;;;;;4995340;28;20022;-74
2022/03/09 06:14:24;;;;;;;12.98;7.53;;;5.80;56.20;;;;;;4995639;28;20022;-74
2022/03/09 06:16:49;;;;;;;13.55;7.43;;;5.80;56.20;;;;;;4995381;28;20034;-74
2022/03/09 06:19:16;;;;;;;12.60;7.13;;;5.80;56.20;;;;;;4995113;28;20022;-74
2022/03/09 06:21:42;;;;;;;11.13;7.30;;;5.90;56.00;;;;;;4994807;28;20084;-74
2022/03/09 06:24:07;;;;;;;14.43;7.15;;;5.90;55.90;;;;;;4995102;28;20022;-75
2022/03/09 06:26:33;;;;;;;11.32;7.35;;;6.00;55.90;;;;;;4995111;28;20042;-74
2022/03/09 06:28:59;;;;;;;12.32;7.03;;;6.00;55.90;;;;;;4995069;28;20030;-74
2022/03/09 06:31:24;;;;;;;13.45;7.68;;;6.10;55.80;;;;;;4994647;28;20527;-74
2022/03/09 06:33:50;;;;;;;12.80;6.72;;;6.10;55.50;;;;;;4994928;28;20030;-74
2022/03/09 06:36:16;;;;;;;11.52;7.82;;;6.10;55.50;;;;;;4994524;28;20019;-74
2022/03/09 06:38:42;;;;;;;12.52;7.45;;;6.10;56.10;;;;;;4984431;28;20046;-74
2022/03/09 06:41:07;;;;;;;12.98;7.15;;;6.20;55.50;;;;;;4992800;28;20042;-74
2022/03/09 06:43:33;;;;;;;11.23;7.13;;;6.20;55.40;;;;;;4994744;28;20120;-74
2022/03/09 06:45:59;;;;;;;12.93;7.80;;;6.20;55.30;;;;;;4992613;28;20494;-75
2022/03/09 06:48:24;;;;;;;14.77;8.15;;;6.20;55.40;;;;;;4993086;28;20027;-74
2022/03/09 06:50:50;;;;;;;15.23;7.70;;;6.20;55.70;;;;;;4994265;28;20080;-74
2022/03/09 06:53:16;;;;;;;16.45;9.25;;;6.30;55.90;;;;;;4993659;28;20031;-74
2022/03/09 06:55:46;;;;;;;12.73;7.70;;;6.30;55.80;;;;;;4994580;28;20022;-74
2022/03/09 06:58:12;;;;;;;16.13;8.05;;;6.40;55.80;;;;;;4994538;28;20027;-74
2022/03/09 07:00:38;;;;;;;13.25;8.43;;;6.40;55.80;;;;;;4992260;28;20031;-74
2022/03/09 07:03:05;;;;;;;10.65;7.15;;;6.50;55.80;;;;;;4993253;28;20078;-75
2022/03/09 07:05:34;;;;;;;12.73;6.97;;;6.50;55.60;;;;;;4994547;28;20046;-74
2022/03/09 07:08:00;;;;;;;13.30;7.53;;;6.60;55.50;;;;;;4993226;28;20038;-75
2022/03/09 07:10:26;;;;;;;15.82;8.02;;;6.60;55.30;;;;;;4991990;28;20147;-74
2022/03/09 07:12:53;;;;;;;17.13;7.70;;;6.60;55.50;;;;;;4992849;28;20351;-74
2022/03/09 07:15:18;;;;;;;14.27;7.30;;;6.70;55.10;;;;;;4992817;28;20053;-75
2022/03/09 07:17:46;;;;;;;15.55;7.53;;;6.70;54.70;;;;;;4992429;28;20026;-75
2022/03/09 07:20:12;;;;;;;12.65;7.72;;;6.70;55.60;;;;;;4991779;28;20073;-76
2022/03/09 07:22:40;;;;;;;13.23;7.35;;;6.60;56.10;;;;;;4992165;28;20038;-76
2022/03/09 07:25:09;;;;;;;16.02;7.50;;;6.60;55.80;;;;;;4992673;28;20536;-75
2022/03/09 07:27:41;;;;;;;18.02;7.68;;;6.60;55.90;;;;;;4991822;28;20121;-75
2022/03/09 07:30:08;;;;;;;12.23;7.38;;;6.60;55.60;;;;;;4991960;28;20394;-76
2022/03/09 07:32:34;;;;;;;30.88;8.93;;;6.60;55.40;;;;;;4991238;28;20038;-76
2022/03/09 07:35:00;;;;;;;17.23;7.50;;;6.70;55.40;;;;;;4992522;28;20031;-76
2022/03/09 07:37:25;;;;;;;12.07;7.10;;;6.80;55.20;;;;;;4991672;28;20097;-76
2022/03/09 07:39:51;;;;;;;13.82;8.25;;;6.90;54.50;;;;;;4992009;28;20066;-78
2022/03/09 07:42:17;;;;;;;16.10;8.07;;;7.10;54.70;;;;;;4991287;28;20531;-77
2022/03/09 07:44:42;;;;;;;14.07;7.15;;;7.20;53.50;;;;;;4992022;28;20045;-77
2022/03/09 07:47:08;;;;;;;16.80;7.57;;;7.20;53.50;;;;;;4992366;28;20038;-77
2022/03/09 07:49:33;;;;;;;15.13;6.72;;;7.30;54.20;;;;;;4991967;28;20018;-77
2022/03/09 07:52:02;;;;;;;15.73;7.03;;;7.40;53.40;;;;;;4992223;28;20093;-77
2022/03/09 07:54:28;;;;;;;15.07;7.38;;;7.40;53.10;;;;;;4992326;28;20049;-76
2022/03/09 07:56:55;;;;;;;14.18;7.72;;;7.50;53.50;;;;;;4992104;28;20038;-77
2022/03/09 07:59:20;;;;;;;16.67;8.27;;;7.70;54.10;;;;;;4990743;28;20026;-77
2022/03/09 08:01:46;;;;;;;16.63;7.97;;;7.80;53.90;;;;;;4996504;28;20109;-78
2022/03/09 08:04:11;;;;;;;23.85;9.70;;;8.00;53.70;;;;;;4996713;28;20081;-77
2022/03/09 08:06:37;;;;;;;16.17;7.40;;;8.10;52.90;;;;;;4996110;28;20034;-78
2022/03/09 08:09:04;;;;;;;13.55;7.22;;;8.10;53.00;;;;;;4996599;28;20081;-78
2022/03/09 08:11:30;;;;;;;14.77;7.93;;;8.10;53.10;;;;;;4996440;28;20121;-77
2022/03/09 08:13:57;;;;;;;17.60;7.05;;;8.10;53.30;;;;;;4995620;28;20083;-79
2022/03/09 08:16:23;;;;;;;13.32;6.55;;;8.20;52.00;;;;;;4995764;28;20061;-77
2022/03/09 08:18:48;;;;;;;11.30;6.75;;;8.40;51.60;;;;;;4997233;28;20462;-78
2022/03/09 08:21:14;;;;;;;20.60;8.18;;;8.60;51.30;;;;;;4997304;28;20053;-77
2022/03/09 08:23:40;;;;;;;15.43;7.57;;;8.70;51.40;;;;;;4996677;28;20030;-79
2022/03/09 08:26:05;;;;;;;15.93;7.78;;;8.80;51.90;;;;;;4995745;28;20061;-76
2022/03/09 08:28:31;;;;;;;11.65;7.22;;;8.80;52.00;;;;;;4995972;28;20433;-77
2022/03/09 08:30:56;;;;;;;14.15;7.35;;;8.70;52.30;;;;;;4995801;28;20022;-76
2022/03/09 08:33:22;;;;;;;15.70;7.43;;;8.70;51.90;;;;;;4995771;28;20072;-77
2022/03/09 08:35:48;;;;;;;13.32;7.63;;;8.80;52.00;;;;;;4995764;28;20462;-79
2022/03/09 08:38:14;;;;;;;13.07;7.55;;;8.90;51.60;;;;;;4995827;28;20030;-77
2022/03/09 08:40:40;;;;;;;13.68;7.72;;;9.10;51.10;;;;;;4998316;28;20042;-78
2022/03/09 08:43:05;;;;;;;11.98;8.05;;;9.20;50.50;;;;;;4997273;28;20373;-78
2022/03/09 08:45:31;;;;;;;12.98;7.30;;;9.30;50.60;;;;;;5008181;28;20050;-85
2022/03/09 08:47:56;;;;;;;13.80;7.88;;;9.30;50.80;;;;;;4998614;28;20483;-78
2022/03/09 08:50:22;;;;;;;12.15;6.88;;;9.30;51.50;;;;;;5004280;28;20041;-83
2022/03/09 08:52:48;;;;;;;14.95;7.22;;;9.20;51.30;;;;;;5012592;28;20109;-79
2022/03/09 08:55:13;;;;;;;11.88;7.88;;;9.30;50.90;;;;;;5003425;28;20469;-81
2022/03/09 08:57:39;;;;;;;11.23;7.38;;;9.40;51.00;;;;;;5001521;28;20026;-79
2022/03/09 09:00:06;;;;;;;9.70;7.15;;;9.50;51.40;;;;;;5002356;28;20120;-79
2022/03/09 09:02:32;;;;;;;11.40;8.00;;;9.70;50.90;;;;;;4998573;28;20026;-80
2022/03/09 09:04:58;;;;;;;16.17;7.88;;;9.90;50.40;;;;;;5008178;28;20532;-80
2022/03/09 09:07:24;;;;;;;15.68;8.48;;;10.00;50.00;;;;;;4994648;28;20505;-79
2022/03/09 09:09:49;;;;;;;16.98;7.35;;;10.20;50.70;;;;;;4995466;28;20034;-79
2022/03/09 09:12:15;;;;;;;15.93;7.20;;;10.30;49.50;;;;;;4994507;28;20367;-78
2022/03/09 09:14:41;;;;;;;13.02;7.90;;;10.50;48.90;;;;;;4995356;28;20034;-79
2022/03/09 09:17:07;;;;;;;11.73;7.28;;;10.50;48.80;;;;;;4995466;28;20030;-77
2022/03/09 09:19:33;;;;;;;9.57;6.97;;;10.50;48.10;;;;;;4997798;28;20030;-80
2022/03/09 09:22:00;;;;;;;11.02;7.72;;;10.60;47.90;;;;;;4998461;28;20030;-79
2022/03/09 09:24:25;;;;;;;12.93;7.57;;;10.70;47.70;;;;;;5004338;28;20056;-78
2022/03/09 09:26:51;;;;;;;11.82;7.68;;;10.70;47.50;;;;;;4998350;28;20054;-79
2022/03/09 09:29:16;;;;;;;13.18;7.15;;;10.70;47.20;;;;;;5006005;28;20026;-81
2022/03/09 09:31:42;;;;;;;13.68;7.70;;;10.80;47.00;;;;;;5011259;28;20029;-81
2022/03/09 09:34:08;;;;;;;15.65;7.10;;;10.80;47.70;;;;;;5003337;28;20038;-79
2022/03/09 09:36:35;;;;;;;17.42;8.00;;;10.90;47.80;;;;;;4996574;28;20526;-84
2022/03/09 09:39:01;;;;;;;10.63;7.45;;;11.10;48.20;;;;;;4996347;28;20073;-85
2022/03/09 09:41:28;;;;;;;11.45;7.43;;;11.20;47.80;;;;;;4994718;28;20496;-82
2022/03/09 09:43:53;;;;;;;14.57;7.72;;;11.30;48.20;;;;;;4994796;28;20490;-83
2022/03/09 09:46:20;;;;;;;13.75;8.07;;;11.30;49.60;;;;;;4994488;28;20043;-83
2022/03/09 09:48:46;;;;;;;10.07;7.43;;;11.40;48.50;;;;;;4995296;28;20548;-80
2022/03/09 09:51:12;;;;;;;12.90;7.57;;;11.40;48.80;;;;;;4994651;28;20105;-78
2022/03/09 09:53:42;;;;;;;11.48;8.13;;;11.60;49.10;;;;;;4994598;28;20037;-78
2022/03/09 09:56:09;;;;;;;16.60;8.02;;;11.70;48.60;;;;;;4992386;28;20485;-77
2022/03/09 09:58:36;;;;;;;13.15;7.82;;;11.80;47.40;;;;;;4993889;28;20126;-77
2022/03/09 10:01:03;;;;;;;14.05;7.93;;;11.90;46.70;;;;;;4993801;28;20080;-79
2022/03/09 10:03:28;;;;;;;13.70;7.50;;;11.90;46.60;;;;;;4995221;28;20057;-78
2022/03/09 10:05:54;;;;;;;12.77;7.82;;;12.00;47.40;;;;;;4995268;28;20486;-79
2022/03/09 10:08:19;;;;;;;11.55;7.50;;;12.10;47.70;;;;;;4996294;28;20473;-80
2022/03/09 10:10:56;;;;;;;16.27;8.23;;;12.30;46.40;;;;;;4996364;28;20153;-79
2022/03/09 10:13:26;;;;;;;11.15;7.40;;;12.40;46.10;;;;;;4995317;28;20032;-80
2022/03/09 10:16:31;;;;;;;13.77;7.60;;;12.50;46.20;;;;;;4995571;28;20019;-80
2022/03/09 10:18:58;;;;;;;13.73;7.63;;;12.70;46.20;;;;;;4916196;29;20039;-81
2022/03/09 10:21:28;;;;;;;13.48;8.20;;;12.80;46.00;;;;;;4921478;29;20028;-80
2022/03/09 10:24:01;;;;;;;12.88;8.00;;;12.90;46.40;;;;;;4950123;28;20038;-80
2022/03/09 10:26:38;;;;;;;13.43;7.53;;;13.00;45.40;;;;;;4994218;28;20045;-79
2022/03/09 10:29:05;;;;;;;12.55;7.72;;;13.10;45.70;;;;;;4993300;28;20080;-80
2022/03/09 10:31:39;;;;;;;11.77;8.05;;;13.30;45.90;;;;;;4993959;28;20041;-81
2022/03/09 10:34:13;;;;;;;11.10;7.60;;;13.40;45.50;;;;;;4994511;28;20084;-80
2022/03/09 10:37:00;;;;;;;11.80;7.45;;;13.60;45.40;;;;;;4993793;28;20030;-79
2022/03/09 10:39:31;;;;;;;17.20;8.70;;;13.80;45.50;;;;;;4997609;28;20045;-78
2022/03/09 10:41:58;;;;;;;12.93;8.52;;;13.80;44.80;;;;;;5011147;28;20072;-78
2022/03/09 10:44:43;;;;;;;13.65;8.38;;;14.00;45.40;;;;;;4995855;28;20030;-78
2022/03/09 10:47:10;;;;;;;13.82;9.05;;;14.10;44.90;;;;;;5002522;28;20490;-78
2022/03/09 10:49:35;;;;;;;15.38;8.70;;;14.30;44.70;;;;;;5010494;28;20709;-78
2022/03/09 10:52:01;;;;;;;14.48;8.52;;;14.30;45.00;;;;;;5005993;28;20112;-78
2022/03/09 10:54:32;;;;;;;14.30;8.18;;;14.30;44.60;;;;;;4994120;28;20113;-78
2022/03/09 10:57:12;;;;;;;12.30;8.48;;;14.30;45.00;;;;;;4993486;28;20109;-77
2022/03/09 10:59:53;;;;;;;12.15;8.65;;;14.40;44.10;;;;;;4993227;28;20429;-77
2022/03/09 11:02:21;;;;;;;13.65;8.80;;;14.60;43.20;;;;;;4984571;28;20164;-77
2022/03/09 11:05:08;;;;;;;14.98;8.73;;;14.70;43.30;;;;;;4994661;28;20102;-78
2022/03/09 11:07:36;;;;;;;14.13;8.75;;;14.90;43.40;;;;;;4994537;28;20068;-76
2022/03/09 11:10:03;;;;;;;14.10;8.48;;;15.00;43.20;;;;;;4994624;28;20057;-77
2022/03/09 11:12:28;;;;;;;12.85;8.40;;;15.10;43.60;;;;;;4994873;28;20030;-77
2022/03/09 11:14:55;;;;;;;16.42;9.57;;;15.20;43.10;;;;;;4995415;28;20038;-78
2022/03/09 11:17:23;;;;;;;16.30;8.43;;;15.30;42.80;;;;;;4986549;28;20030;-77
2022/03/09 11:19:49;;;;;;;15.02;9.32;;;15.20;42.40;;;;;;5004474;28;20489;-79
2022/03/09 11:22:15;;;;;;;16.83;9.73;;;15.20;43.30;;;;;;5001443;28;20108;-78
2022/03/09 11:24:41;;;;;;;16.08;8.75;;;15.40;42.40;;;;;;5001873;28;20156;-78
2022/03/09 11:27:08;;;;;;;14.35;9.40;;;15.40;41.90;;;;;;5001682;28;20065;-79
2022/03/09 11:29:35;;;;;;;13.95;8.93;;;15.50;41.60;;;;;;5000279;28;20031;-79
2022/03/09 11:32:03;;;;;;;15.30;8.90;;;15.50;41.80;;;;;;4995302;28;20109;-79
2022/03/09 11:34:45;;;;;;;13.90;9.38;;;15.50;41.10;;;;;;4994274;28;20061;-79
2022/03/09 11:37:12;;;;;;;15.30;10.02;;;15.60;41.40;;;;;;5004973;28;20030;-80
2022/03/09 11:39:40;;;;;;;14.60;9.48;;;15.70;40.70;;;;;;5009188;28;20054;-79
2022/03/09 11:42:21;;;;;;;18.15;10.70;;;15.70;40.30;;;;;;4999164;28;20046;-79
2022/03/09 11:44:47;;;;;;;16.33;9.75;;;15.70;41.30;;;;;;4992198;28;20105;-77
2022/03/09 11:47:14;;;;;;;16.42;10.00;;;15.70;40.80;;;;;;4997545;28;20144;-77
2022/03/09 11:49:42;;;;;;;17.33;10.18;;;15.60;41.80;;;;;;4994261;28;20019;-77
2022/03/09 11:52:19;;;;;;;14.85;10.38;;;15.70;42.00;;;;;;4983609;28;20065;-76
2022/03/09 11:54:56;;;;;;;19.15;10.93;;;15.80;41.10;;;;;;5009114;28;20112;-76
2022/03/09 11:57:45;;;;;;;16.05;10.82;;;15.80;41.80;;;;;;5007097;28;20049;-78
2022/03/09 12:00:13;;;;;;;18.20;10.65;;;15.60;41.30;;;;;;5008904;28;20087;-77
2022/03/09 12:02:41;;;;;;;16.70;10.27;;;15.60;40.60;;;;;;5002591;28;20064;-78
2022/03/09 12:05:28;;;;;;;16.98;11.27;;;15.70;40.30;;;;;;5008160;28;20024;-77
2022/03/09 12:07:57;;;;;;;16.45;10.48;;;15.80;41.00;;;;;;5002165;28;20072;-77
2022/03/09 12:10:52;;;;;;;15.60;10.68;;;16.00;40.90;;;;;;5005000;28;20389;-77
2022/03/09 12:13:32;;;;;;;21.27;11.38;;;16.10;40.30;;;;;;4997829;28;20097;-78
2022/03/09 12:16:12;;;;;;;17.13;11.60;;;16.20;40.00;;;;;;4994201;28;20113;-77
2022/03/09 12:18:39;;;;;;;16.95;10.65;;;16.10;40.90;;;;;;4997190;28;20572;-77
2022/03/09 12:21:06;;;;;;;20.23;11.52;;;16.20;40.20;;;;;;4994181;28;20641;-77
2022/03/09 12:23:33;;;;;;;17.33;11.82;;;16.40;40.60;;;;;;4993554;28;20167;-77
2022/03/09 12:26:01;;;;;;;16.02;11.55;;;16.30;40.80;;;;;;5002269;28;20038;-77
2022/03/09 12:28:33;;;;;;;19.73;11.75;;;16.20;40.70;;;;;;4999693;28;20153;-78
2022/03/09 12:31:14;;;;;;;19.23;11.55;;;16.30;40.20;;;;;;4989799;28;20030;-77
2022/03/09 12:33:42;;;;;;;16.83;11.18;;;16.50;40.10;;;;;;4995783;28;20073;-77
2022/03/09 12:36:15;;;;;;;17.52;11.40;;;16.60;40.60;;;;;;4997822;28;20049;-77
2022/03/09 12:38:52;;;;;;;20.05;11.95;;;16.60;39.40;;;;;;4996226;28;20109;-77
2022/03/09 12:41:24;;;;;;;16.95;11.52;;;16.70;38.90;;;;;;5009952;28;20069;-77
2022/03/09 12:43:52;;;;;;;17.55;12.02;;;16.80;39.20;;;;;;5011158;28;20049;-77